sensor_id;sensor_type;location;lat;lon;timestamp;pressure;altitude;pressure_sealevel;temperature;humidity
61478;BME280;47345;52.334;10.392;2023-05-10T00:02:15;100056.44;;;13.54;55.73
61478;BME280;47345;52.334;10.392;2023-05-10T00:04:46;100055.08;;;13.52;55.85
61478;BME280;47345;52.334;10.392;2023-05-10T00:07:17;100052.58;;;13.50;56.01
61478;BME280;47345;52.334;10.392;2023-05-10T00:09:47;100048.33;;;13.47;56.15
61478;BME280;47345;52.334;10.392;2023-05-10T00:12:18;100049.17;;;13.45;56.17
61478;BME280;47345;52.334;10.392;2023-05-10T00:14:48;100045.40;;;13.43;56.29
61478;BME280;47345;52.334;10.392;2023-05-10T00:17:19;100043.83;;;13.42;56.43
61478;BME280;47345;52.334;10.392;2023-05-10T00:19:49;100044.30;;;13.40;56.53
61478;BME280;47345;52.334;10.392;2023-05-10T00:22:20;100041.97;;;13.38;56.53
61478;BME280;47345;52.334;10.392;2023-05-10T00:24:51;100040.94;;;13.37;56.67
61478;BME280;47345;52.334;10.392;2023-05-10T00:27:22;100041.11;;;13.34;56.77
61478;BME280;47345;52.334;10.392;2023-05-10T00:29:52;100037.95;;;13.33;56.91
61478;BME280;47345;52.334;10.392;2023-05-10T00:32:23;100039.08;;;13.31;57.06
61478;BME280;47345;52.334;10.392;2023-05-10T00:34:54;100036.83;;;13.29;57.04
61478;BME280;47345;52.334;10.392;2023-05-10T00:37:25;100039.29;;;13.28;57.15
61478;BME280;47345;52.334;10.392;2023-05-10T00:39:55;100044.15;;;13.27;57.22
61478;BME280;47345;52.334;10.392;2023-05-10T00:42:26;100044.07;;;13.26;57.34
61478;BME280;47345;52.334;10.392;2023-05-10T00:44:57;100045.10;;;13.25;57.38
61478;BME280;47345;52.334;10.392;2023-05-10T00:47:28;100040.67;;;13.23;57.50
61478;BME280;47345;52.334;10.392;2023-05-10T00:49:59;100039.48;;;13.21;57.59
61478;BME280;47345;52.334;10.392;2023-05-10T00:52:31;100040.11;;;13.20;57.66
61478;BME280;47345;52.334;10.392;2023-05-10T00:55:02;100039.59;;;13.19;57.69
61478;BME280;47345;52.334;10.392;2023-05-10T00:57:34;100037.38;;;13.15;57.81
61478;BME280;47345;52.334;10.392;2023-05-10T01:00:07;100037.33;;;13.13;57.93
61478;BME280;47345;52.334;10.392;2023-05-10T01:02:39;100040.08;;;13.10;58.03
61478;BME280;47345;52.334;10.392;2023-05-10T01:05:11;100038.77;;;13.08;58.08
61478;BME280;47345;52.334;10.392;2023-05-10T01:07:42;100034.20;;;13.06;58.29
61478;BME280;47345;52.334;10.392;2023-05-10T01:10:13;100032.36;;;13.04;58.35
61478;BME280;47345;52.334;10.392;2023-05-10T01:12:46;100029.83;;;13.01;58.45
61478;BME280;47345;52.334;10.392;2023-05-10T01:15:18;100023.96;;;12.99;58.53
61478;BME280;47345;52.334;10.392;2023-05-10T01:17:51;100026.63;;;12.96;58.69
61478;BME280;47345;52.334;10.392;2023-05-10T01:20:23;100026.20;;;12.94;58.73
61478;BME280;47345;52.334;10.392;2023-05-10T01:23:16;100022.65;;;12.92;58.78
61478;BME280;47345;52.334;10.392;2023-05-10T01:29:16;100031.14;;;12.88;59.01
61478;BME280;47345;52.334;10.392;2023-05-10T01:32:25;100026.98;;;12.87;59.04
61478;BME280;47345;52.334;10.392;2023-05-10T01:35:02;100025.27;;;12.84;59.08
61478;BME280;47345;52.334;10.392;2023-05-10T01:37:39;100025.69;;;12.83;59.05
61478;BME280;47345;52.334;10.392;2023-05-10T01:40:19;100026.60;;;12.82;59.18
61478;BME280;47345;52.334;10.392;2023-05-10T01:42:55;100026.33;;;12.80;59.19
61478;BME280;47345;52.334;10.392;2023-05-10T01:45:33;100020.71;;;12.79;59.25
61478;BME280;47345;52.334;10.392;2023-05-10T01:48:08;100021.95;;;12.77;59.31
61478;BME280;47345;52.334;10.392;2023-05-10T01:50:43;100022.48;;;12.77;59.35
61478;BME280;47345;52.334;10.392;2023-05-10T01:53:17;100019.42;;;12.75;59.35
61478;BME280;47345;52.334;10.392;2023-05-10T01:55:50;100018.66;;;12.73;59.48
61478;BME280;47345;52.334;10.392;2023-05-10T01:58:29;100018.09;;;12.72;59.44
61478;BME280;47345;52.334;10.392;2023-05-10T02:01:03;100015.98;;;12.70;59.54
61478;BME280;47345;52.334;10.392;2023-05-10T02:03:37;100016.88;;;12.69;59.67
61478;BME280;47345;52.334;10.392;2023-05-10T02:06:10;100015.64;;;12.67;59.73
61478;BME280;47345;52.334;10.392;2023-05-10T02:08:44;100017.81;;;12.66;59.80
61478;BME280;47345;52.334;10.392;2023-05-10T02:11:16;100015.31;;;12.65;59.85
61478;BME280;47345;52.334;10.392;2023-05-10T02:13:48;100015.84;;;12.64;59.91
61478;BME280;47345;52.334;10.392;2023-05-10T02:16:23;100018.17;;;12.63;59.89
61478;BME280;47345;52.334;10.392;2023-05-10T02:18:57;100015.23;;;12.62;59.97
61478;BME280;47345;52.334;10.392;2023-05-10T02:21:30;100014.54;;;12.60;60.03
61478;BME280;47345;52.334;10.392;2023-05-10T02:24:03;100013.27;;;12.59;60.14
61478;BME280;47345;52.334;10.392;2023-05-10T02:26:36;100016.38;;;12.59;60.25
61478;BME280;47345;52.334;10.392;2023-05-10T02:29:09;100014.40;;;12.59;60.34
61478;BME280;47345;52.334;10.392;2023-05-10T02:31:41;100015.88;;;12.59;60.28
61478;BME280;47345;52.334;10.392;2023-05-10T02:34:13;100013.02;;;12.59;60.30
61478;BME280;47345;52.334;10.392;2023-05-10T02:36:45;100014.30;;;12.57;60.32
61478;BME280;47345;52.334;10.392;2023-05-10T02:39:17;100014.67;;;12.57;60.46
61478;BME280;47345;52.334;10.392;2023-05-10T02:41:49;100012.54;;;12.57;60.61
61478;BME280;47345;52.334;10.392;2023-05-10T02:44:21;100007.72;;;12.55;60.60
61478;BME280;47345;52.334;10.392;2023-05-10T02:46:53;100011.65;;;12.54;60.57
61478;BME280;47345;52.334;10.392;2023-05-10T02:49:25;100011.04;;;12.53;60.65
61478;BME280;47345;52.334;10.392;2023-05-10T02:52:00;100005.13;;;12.53;60.74
61478;BME280;47345;52.334;10.392;2023-05-10T02:54:35;100009.48;;;12.53;60.77
61478;BME280;47345;52.334;10.392;2023-05-10T02:57:12;100007.15;;;12.51;60.82
61478;BME280;47345;52.334;10.392;2023-05-10T02:59:47;100003.30;;;12.51;60.86
61478;BME280;47345;52.334;10.392;2023-05-10T03:02:18;100003.11;;;12.50;60.90
61478;BME280;47345;52.334;10.392;2023-05-10T03:04:50;100004.42;;;12.50;60.86
61478;BME280;47345;52.334;10.392;2023-05-10T03:07:21;100005.98;;;12.48;60.92
61478;BME280;47345;52.334;10.392;2023-05-10T03:09:53;100006.36;;;12.48;60.90
61478;BME280;47345;52.334;10.392;2023-05-10T03:12:31;100004.77;;;12.48;60.88
61478;BME280;47345;52.334;10.392;2023-05-10T03:15:07;100003.52;;;12.47;61.06
61478;BME280;47345;52.334;10.392;2023-05-10T03:17:57;100004.21;;;12.45;61.11
61478;BME280;47345;52.334;10.392;2023-05-10T03:20:35;100007.56;;;12.46;61.12
61478;BME280;47345;52.334;10.392;2023-05-10T03:23:11;100010.63;;;12.46;61.17
61478;BME280;47345;52.334;10.392;2023-05-10T03:25:43;100012.48;;;12.45;61.28
61478;BME280;47345;52.334;10.392;2023-05-10T03:28:16;100012.05;;;12.46;61.35
61478;BME280;47345;52.334;10.392;2023-05-10T03:30:47;100012.67;;;12.46;61.36
61478;BME280;47345;52.334;10.392;2023-05-10T03:33:18;100014.45;;;12.47;61.35
61478;BME280;47345;52.334;10.392;2023-05-10T03:35:50;100011.37;;;12.46;61.55
61478;BME280;47345;52.334;10.392;2023-05-10T03:38:20;100013.52;;;12.47;61.56
61478;BME280;47345;52.334;10.392;2023-05-10T03:40:51;100013.77;;;12.49;61.54
61478;BME280;47345;52.334;10.392;2023-05-10T03:43:22;100012.35;;;12.48;61.61
61478;BME280;47345;52.334;10.392;2023-05-10T03:45:53;100012.80;;;12.49;61.63
61478;BME280;47345;52.334;10.392;2023-05-10T03:48:23;100011.06;;;12.50;61.81
61478;BME280;47345;52.334;10.392;2023-05-10T03:50:54;100011.65;;;12.49;61.76
61478;BME280;47345;52.334;10.392;2023-05-10T03:53:27;100014.40;;;12.49;61.75
61478;BME280;47345;52.334;10.392;2023-05-10T03:55:58;100013.58;;;12.50;61.87
61478;BME280;47345;52.334;10.392;2023-05-10T03:58:29;100009.93;;;12.51;62.43
61478;BME280;47345;52.334;10.392;2023-05-10T04:00:59;100011.84;;;12.51;63.22
61478;BME280;47345;52.334;10.392;2023-05-10T04:03:31;100008.65;;;12.50;63.14
61478;BME280;47345;52.334;10.392;2023-05-10T04:06:02;100009.44;;;12.51;63.36
61478;BME280;47345;52.334;10.392;2023-05-10T04:08:33;100008.96;;;12.51;63.37
61478;BME280;47345;52.334;10.392;2023-05-10T04:11:08;100008.27;;;12.52;63.69
61478;BME280;47345;52.334;10.392;2023-05-10T04:13:39;100004.19;;;12.54;63.59
61478;BME280;47345;52.334;10.392;2023-05-10T04:16:10;100000.09;;;12.52;63.52
61478;BME280;47345;52.334;10.392;2023-05-10T04:18:40;100003.76;;;12.54;63.59
61478;BME280;47345;52.334;10.392;2023-05-10T04:21:14;100003.40;;;12.55;63.81
61478;BME280;47345;52.334;10.392;2023-05-10T04:23:45;100004.52;;;12.57;63.61
61478;BME280;47345;52.334;10.392;2023-05-10T04:26:16;100005.81;;;12.58;63.72
61478;BME280;47345;52.334;10.392;2023-05-10T04:28:46;100005.88;;;12.59;63.98
61478;BME280;47345;52.334;10.392;2023-05-10T04:31:18;100001.02;;;12.59;64.07
61478;BME280;47345;52.334;10.392;2023-05-10T04:33:49;99991.68;;;12.54;64.33
61478;BME280;47345;52.334;10.392;2023-05-10T04:36:20;100004.48;;;12.62;64.43
61478;BME280;47345;52.334;10.392;2023-05-10T04:38:51;100003.51;;;12.63;64.60
61478;BME280;47345;52.334;10.392;2023-05-10T04:41:22;100001.73;;;12.64;64.77
61478;BME280;47345;52.334;10.392;2023-05-10T04:43:53;100009.55;;;12.65;64.76
61478;BME280;47345;52.334;10.392;2023-05-10T04:46:24;100012.38;;;12.66;64.78
61478;BME280;47345;52.334;10.392;2023-05-10T04:48:55;100012.45;;;12.67;64.71
61478;BME280;47345;52.334;10.392;2023-05-10T04:51:25;100014.55;;;12.68;64.74
61478;BME280;47345;52.334;10.392;2023-05-10T04:53:57;100015.99;;;12.69;64.79
61478;BME280;47345;52.334;10.392;2023-05-10T04:56:35;100015.92;;;12.68;64.67
61478;BME280;47345;52.334;10.392;2023-05-10T04:59:06;100021.69;;;12.67;64.86
61478;BME280;47345;52.334;10.392;2023-05-10T05:01:36;100017.98;;;12.66;65.01
61478;BME280;47345;52.334;10.392;2023-05-10T05:04:07;100024.23;;;12.69;65.29
61478;BME280;47345;52.334;10.392;2023-05-10T05:06:38;100034.35;;;12.69;65.19
61478;BME280;47345;52.334;10.392;2023-05-10T05:09:09;100033.33;;;12.70;65.54
61478;BME280;47345;52.334;10.392;2023-05-10T05:11:41;100040.20;;;12.72;65.72
61478;BME280;47345;52.334;10.392;2023-05-10T05:14:12;100042.78;;;12.72;65.82
61478;BME280;47345;52.334;10.392;2023-05-10T05:16:42;100046.83;;;12.74;65.89
61478;BME280;47345;52.334;10.392;2023-05-10T05:19:13;100050.88;;;12.75;65.99
61478;BME280;47345;52.334;10.392;2023-05-10T05:21:44;100051.77;;;12.76;66.30
61478;BME280;47345;52.334;10.392;2023-05-10T05:24:17;100052.27;;;12.78;66.57
61478;BME280;47345;52.334;10.392;2023-05-10T05:26:50;100052.30;;;12.80;66.69
61478;BME280;47345;52.334;10.392;2023-05-10T05:29:21;100054.35;;;12.81;66.68
61478;BME280;47345;52.334;10.392;2023-05-10T05:31:51;100054.34;;;12.80;66.82
61478;BME280;47345;52.334;10.392;2023-05-10T05:34:24;100054.77;;;12.79;66.83
61478;BME280;47345;52.334;10.392;2023-05-10T05:36:55;100059.11;;;12.80;67.11
61478;BME280;47345;52.334;10.392;2023-05-10T05:39:25;100061.83;;;12.79;67.33
61478;BME280;47345;52.334;10.392;2023-05-10T05:41:56;100062.23;;;12.77;67.64
61478;BME280;47345;52.334;10.392;2023-05-10T05:44:28;100064.25;;;12.77;68.14
61478;BME280;47345;52.334;10.392;2023-05-10T05:46:59;100064.47;;;12.77;68.23
61478;BME280;47345;52.334;10.392;2023-05-10T05:49:30;100067.17;;;12.77;68.51
61478;BME280;47345;52.334;10.392;2023-05-10T05:52:02;100069.27;;;12.78;68.71
61478;BME280;47345;52.334;10.392;2023-05-10T05:54:33;100068.77;;;12.78;69.10
61478;BME280;47345;52.334;10.392;2023-05-10T05:57:04;100065.62;;;12.77;69.14
61478;BME280;47345;52.334;10.392;2023-05-10T05:59:35;100066.62;;;12.77;69.19
61478;BME280;47345;52.334;10.392;2023-05-10T06:02:05;100060.48;;;12.78;69.30
61478;BME280;47345;52.334;10.392;2023-05-10T06:04:36;100065.05;;;12.80;69.35
61478;BME280;47345;52.334;10.392;2023-05-10T06:07:07;100072.46;;;12.83;69.46
61478;BME280;47345;52.334;10.392;2023-05-10T06:09:38;100077.52;;;12.88;69.82
61478;BME280;47345;52.334;10.392;2023-05-10T06:12:09;100080.20;;;12.90;70.17
61478;BME280;47345;52.334;10.392;2023-05-10T06:14:41;100081.70;;;12.93;70.22
61478;BME280;47345;52.334;10.392;2023-05-10T06:17:12;100080.68;;;12.96;69.99
61478;BME280;47345;52.334;10.392;2023-05-10T06:19:42;100082.23;;;12.99;70.01
61478;BME280;47345;52.334;10.392;2023-05-10T06:22:13;100082.85;;;13.03;69.95
61478;BME280;47345;52.334;10.392;2023-05-10T06:24:44;100080.00;;;13.06;69.69
61478;BME280;47345;52.334;10.392;2023-05-10T06:27:15;100085.11;;;13.08;69.75
61478;BME280;47345;52.334;10.392;2023-05-10T06:29:46;100083.89;;;13.10;69.69
61478;BME280;47345;52.334;10.392;2023-05-10T06:32:20;100085.19;;;13.11;69.78
61478;BME280;47345;52.334;10.392;2023-05-10T06:34:51;100093.00;;;13.14;69.96
61478;BME280;47345;52.334;10.392;2023-05-10T06:37:22;100105.91;;;13.17;69.96
61478;BME280;47345;52.334;10.392;2023-05-10T06:39:53;100112.70;;;13.19;69.90
61478;BME280;47345;52.334;10.392;2023-05-10T06:42:24;100109.08;;;13.21;69.96
61478;BME280;47345;52.334;10.392;2023-05-10T06:44:55;100120.90;;;13.24;70.16
61478;BME280;47345;52.334;10.392;2023-05-10T06:47:25;100110.17;;;13.26;70.51
61478;BME280;47345;52.334;10.392;2023-05-10T06:49:56;100111.42;;;13.28;70.68
61478;BME280;47345;52.334;10.392;2023-05-10T06:52:27;100113.30;;;13.32;71.06
61478;BME280;47345;52.334;10.392;2023-05-10T06:54:58;100116.08;;;13.33;71.30
61478;BME280;47345;52.334;10.392;2023-05-10T06:57:29;100118.10;;;13.35;71.31
61478;BME280;47345;52.334;10.392;2023-05-10T07:00:00;100126.63;;;13.38;71.49
61478;BME280;47345;52.334;10.392;2023-05-10T07:02:33;100129.55;;;13.39;71.67
61478;BME280;47345;52.334;10.392;2023-05-10T07:05:04;100127.63;;;13.40;72.01
61478;BME280;47345;52.334;10.392;2023-05-10T07:07:36;100132.29;;;13.42;72.28
61478;BME280;47345;52.334;10.392;2023-05-10T07:10:08;100134.15;;;13.41;72.61
61478;BME280;47345;52.334;10.392;2023-05-10T07:12:38;100134.70;;;13.40;72.94
61478;BME280;47345;52.334;10.392;2023-05-10T07:15:10;100133.60;;;13.40;73.51
61478;BME280;47345;52.334;10.392;2023-05-10T07:17:41;100133.89;;;13.41;73.95
61478;BME280;47345;52.334;10.392;2023-05-10T07:20:14;100131.59;;;13.43;74.53
61478;BME280;47345;52.334;10.392;2023-05-10T07:22:46;100124.21;;;13.47;75.00
61478;BME280;47345;52.334;10.392;2023-05-10T07:25:16;100123.09;;;13.53;75.55
61478;BME280;47345;52.334;10.392;2023-05-10T07:27:47;100123.66;;;13.57;76.08
61478;BME280;47345;52.334;10.392;2023-05-10T07:30:19;100124.42;;;13.60;76.29
61478;BME280;47345;52.334;10.392;2023-05-10T07:32:50;100129.48;;;13.63;76.67
61478;BME280;47345;52.334;10.392;2023-05-10T07:35:21;100135.59;;;13.65;77.03
61478;BME280;47345;52.334;10.392;2023-05-10T07:37:51;100143.83;;;13.70;77.49
61478;BME280;47345;52.334;10.392;2023-05-10T07:40:22;100154.42;;;13.75;77.57
61478;BME280;47345;52.334;10.392;2023-05-10T07:42:53;100158.94;;;13.79;77.69
61478;BME280;47345;52.334;10.392;2023-05-10T07:45:24;100162.98;;;13.82;78.02
61478;BME280;47345;52.334;10.392;2023-05-10T07:47:55;100164.63;;;13.84;78.22
61478;BME280;47345;52.334;10.392;2023-05-10T07:50:26;100165.32;;;13.86;78.37
61478;BME280;47345;52.334;10.392;2023-05-10T07:52:58;100164.09;;;13.88;78.64
61478;BME280;47345;52.334;10.392;2023-05-10T07:55:29;100164.84;;;13.90;78.75
61478;BME280;47345;52.334;10.392;2023-05-10T07:58:01;100163.51;;;13.92;79.06
61478;BME280;47345;52.334;10.392;2023-05-10T08:00:32;100164.00;;;13.95;79.21
61478;BME280;47345;52.334;10.392;2023-05-10T08:03:03;100163.92;;;13.96;79.53
61478;BME280;47345;52.334;10.392;2023-05-10T08:05:34;100168.71;;;13.99;79.89
61478;BME280;47345;52.334;10.392;2023-05-10T08:08:05;100166.67;;;14.01;80.07
61478;BME280;47345;52.334;10.392;2023-05-10T08:10:36;100171.44;;;14.03;80.55
61478;BME280;47345;52.334;10.392;2023-05-10T08:13:06;100169.38;;;14.08;80.73
61478;BME280;47345;52.334;10.392;2023-05-10T08:15:37;100170.41;;;14.16;80.83
61478;BME280;47345;52.334;10.392;2023-05-10T08:18:08;100169.70;;;14.25;81.22
61478;BME280;47345;52.334;10.392;2023-05-10T08:20:40;100173.30;;;14.36;81.54
61478;BME280;47345;52.334;10.392;2023-05-10T08:23:11;100170.12;;;14.45;81.25
61478;BME280;47345;52.334;10.392;2023-05-10T08:25:42;100169.38;;;14.56;81.57
61478;BME280;47345;52.334;10.392;2023-05-10T08:28:13;100171.67;;;14.67;81.73
61478;BME280;47345;52.334;10.392;2023-05-10T08:30:44;100177.56;;;14.78;81.63
61478;BME280;47345;52.334;10.392;2023-05-10T08:33:15;100184.83;;;14.91;81.80
61478;BME280;47345;52.334;10.392;2023-05-10T08:35:46;100193.83;;;15.04;81.79
61478;BME280;47345;52.334;10.392;2023-05-10T08:38:17;100196.73;;;15.16;81.68
61478;BME280;47345;52.334;10.392;2023-05-10T08:40:49;100203.39;;;15.25;81.68
61478;BME280;47345;52.334;10.392;2023-05-10T08:43:24;100206.16;;;15.35;81.75
61478;BME280;47345;52.334;10.392;2023-05-10T08:45:57;100205.38;;;15.42;81.60
61478;BME280;47345;52.334;10.392;2023-05-10T08:48:30;100209.58;;;15.46;81.47
61478;BME280;47345;52.334;10.392;2023-05-10T08:51:05;100215.18;;;15.45;81.29
61478;BME280;47345;52.334;10.392;2023-05-10T08:53:37;100222.38;;;15.44;81.14
61478;BME280;47345;52.334;10.392;2023-05-10T08:56:09;100221.51;;;15.40;81.19
61478;BME280;47345;52.334;10.392;2023-05-10T08:58:40;100225.13;;;15.38;81.38
61478;BME280;47345;52.334;10.392;2023-05-10T09:01:11;100225.50;;;15.33;81.41
61478;BME280;47345;52.334;10.392;2023-05-10T09:03:43;100227.98;;;15.30;81.61
61478;BME280;47345;52.334;10.392;2023-05-10T09:06:16;100232.20;;;15.25;81.84
61478;BME280;47345;52.334;10.392;2023-05-10T09:08:47;100232.00;;;15.19;82.07
61478;BME280;47345;52.334;10.392;2023-05-10T09:11:18;100237.59;;;15.17;82.33
61478;BME280;47345;52.334;10.392;2023-05-10T09:13:51;100242.25;;;15.13;82.43
61478;BME280;47345;52.334;10.392;2023-05-10T09:16:23;100246.30;;;15.12;82.66
61478;BME280;47345;52.334;10.392;2023-05-10T09:18:54;100246.01;;;15.10;82.87
61478;BME280;47345;52.334;10.392;2023-05-10T09:21:26;100248.52;;;15.09;83.09
61478;BME280;47345;52.334;10.392;2023-05-10T09:23:57;100249.99;;;15.08;83.23
61478;BME280;47345;52.334;10.392;2023-05-10T09:26:33;100249.86;;;15.07;83.45
61478;BME280;47345;52.334;10.392;2023-05-10T09:29:05;100252.75;;;15.04;83.50
61478;BME280;47345;52.334;10.392;2023-05-10T09:31:53;100254.07;;;15.02;83.90
61478;BME280;47345;52.334;10.392;2023-05-10T09:34:31;100264.16;;;15.02;84.18
61478;BME280;47345;52.334;10.392;2023-05-10T09:37:01;100269.06;;;15.02;84.27
61478;BME280;47345;52.334;10.392;2023-05-10T09:39:34;100271.77;;;15.03;84.41
61478;BME280;47345;52.334;10.392;2023-05-10T09:42:07;100274.30;;;15.05;84.73
61478;BME280;47345;52.334;10.392;2023-05-10T09:44:38;100280.63;;;15.09;84.71
61478;BME280;47345;52.334;10.392;2023-05-10T09:47:10;100281.45;;;15.11;84.45
61478;BME280;47345;52.334;10.392;2023-05-10T09:49:42;100284.30;;;15.17;84.48
61478;BME280;47345;52.334;10.392;2023-05-10T09:52:13;100285.97;;;15.25;84.98
61478;BME280;47345;52.334;10.392;2023-05-10T09:54:47;100285.17;;;15.33;85.10
61478;BME280;47345;52.334;10.392;2023-05-10T09:57:23;100289.62;;;15.43;85.08
61478;BME280;47345;52.334;10.392;2023-05-10T09:59:55;100289.92;;;15.51;85.38
61478;BME280;47345;52.334;10.392;2023-05-10T10:02:31;100297.45;;;15.57;84.95
61478;BME280;47345;52.334;10.392;2023-05-10T10:05:03;100300.52;;;15.59;84.43
61478;BME280;47345;52.334;10.392;2023-05-10T10:07:35;100302.42;;;15.61;84.14
61478;BME280;47345;52.334;10.392;2023-05-10T10:10:08;100305.27;;;15.63;83.74
61478;BME280;47345;52.334;10.392;2023-05-10T10:12:42;100309.46;;;15.67;83.81
61478;BME280;47345;52.334;10.392;2023-05-10T10:15:14;100311.75;;;15.68;83.78
61478;BME280;47345;52.334;10.392;2023-05-10T10:17:45;100314.43;;;15.71;83.73
61478;BME280;47345;52.334;10.392;2023-05-10T10:20:17;100317.16;;;15.72;83.52
61478;BME280;47345;52.334;10.392;2023-05-10T10:22:49;100316.76;;;15.72;83.71
61478;BME280;47345;52.334;10.392;2023-05-10T10:25:21;100319.89;;;15.72;83.65
61478;BME280;47345;52.334;10.392;2023-05-10T10:28:07;100320.34;;;15.69;83.54
61478;BME280;47345;52.334;10.392;2023-05-10T10:30:43;100323.06;;;15.65;83.75
61478;BME280;47345;52.334;10.392;2023-05-10T10:33:36;100321.44;;;15.64;83.98
61478;BME280;47345;52.334;10.392;2023-05-10T10:36:09;100322.77;;;15.64;84.49
61478;BME280;47345;52.334;10.392;2023-05-10T10:38:56;100327.20;;;15.66;84.47
61478;BME280;47345;52.334;10.392;2023-05-10T10:41:35;100331.05;;;15.65;84.28
61478;BME280;47345;52.334;10.392;2023-05-10T10:44:26;100331.52;;;15.63;84.19
61478;BME280;47345;52.334;10.392;2023-05-10T10:47:06;100336.77;;;15.60;84.53
61478;BME280;47345;52.334;10.392;2023-05-10T10:49:48;100336.58;;;15.59;84.58
61478;BME280;47345;52.334;10.392;2023-05-10T10:52:24;100334.61;;;15.57;84.75
61478;BME280;47345;52.334;10.392;2023-05-10T10:55:02;100336.88;;;15.57;85.09
61478;BME280;47345;52.334;10.392;2023-05-10T10:57:43;100341.73;;;15.60;85.17
61478;BME280;47345;52.334;10.392;2023-05-10T11:00:26;100340.48;;;15.66;85.07
61478;BME280;47345;52.334;10.392;2023-05-10T11:02:59;100344.81;;;15.67;84.67
61478;BME280;47345;52.334;10.392;2023-05-10T11:05:39;100344.16;;;15.68;84.93
61478;BME280;47345;52.334;10.392;2023-05-10T11:08:15;100346.50;;;15.69;84.68
61478;BME280;47345;52.334;10.392;2023-05-10T11:11:05;100348.04;;;15.72;84.90
61478;BME280;47345;52.334;10.392;2023-05-10T11:13:40;100346.61;;;15.79;84.71
61478;BME280;47345;52.334;10.392;2023-05-10T11:16:16;100348.63;;;15.85;84.53
61478;BME280;47345;52.334;10.392;2023-05-10T11:18:59;100348.80;;;15.88;84.62
61478;BME280;47345;52.334;10.392;2023-05-10T11:21:32;100352.16;;;15.96;84.86
61478;BME280;47345;52.334;10.392;2023-05-10T11:24:14;100353.06;;;16.04;85.11
61478;BME280;47345;52.334;10.392;2023-05-10T11:26:45;100357.45;;;16.16;85.00
61478;BME280;47345;52.334;10.392;2023-05-10T11:29:17;100360.48;;;16.28;84.65
61478;BME280;47345;52.334;10.392;2023-05-10T11:31:49;100360.24;;;16.35;83.94
61478;BME280;47345;52.334;10.392;2023-05-10T11:34:27;100360.77;;;16.42;83.82
61478;BME280;47345;52.334;10.392;2023-05-10T11:36:59;100362.67;;;16.49;83.53
61478;BME280;47345;52.334;10.392;2023-05-10T11:39:30;100363.38;;;16.56;83.35
61478;BME280;47345;52.334;10.392;2023-05-10T11:42:02;100362.08;;;16.62;83.00
61478;BME280;47345;52.334;10.392;2023-05-10T11:44:33;100358.77;;;16.69;82.63
61478;BME280;47345;52.334;10.392;2023-05-10T11:47:04;100362.36;;;16.77;82.41
61478;BME280;47345;52.334;10.392;2023-05-10T11:49:35;100365.54;;;16.84;81.57
61478;BME280;47345;52.334;10.392;2023-05-10T11:52:06;100364.34;;;16.91;81.01
61478;BME280;47345;52.334;10.392;2023-05-10T11:54:38;100367.69;;;16.95;80.31
61478;BME280;47345;52.334;10.392;2023-05-10T11:57:14;100367.39;;;16.96;80.01
61478;BME280;47345;52.334;10.392;2023-05-10T11:59:46;100368.11;;;17.02;79.84
61478;BME280;47345;52.334;10.392;2023-05-10T12:02:17;100369.64;;;17.08;79.94
61478;BME280;47345;52.334;10.392;2023-05-10T12:04:50;100371.54;;;17.16;79.83
61478;BME280;47345;52.334;10.392;2023-05-10T12:07:22;100371.72;;;17.25;79.05
61478;BME280;47345;52.334;10.392;2023-05-10T12:10:10;100375.98;;;17.35;78.68
61478;BME280;47345;52.334;10.392;2023-05-10T12:12:42;100377.98;;;17.48;78.28
61478;BME280;47345;52.334;10.392;2023-05-10T12:15:16;100372.48;;;17.59;77.88
61478;BME280;47345;52.334;10.392;2023-05-10T12:17:48;100378.29;;;17.71;77.64
61478;BME280;47345;52.334;10.392;2023-05-10T12:20:21;100382.20;;;17.82;77.24
61478;BME280;47345;52.334;10.392;2023-05-10T12:22:53;100387.19;;;17.92;77.17
61478;BME280;47345;52.334;10.392;2023-05-10T12:25:32;100387.34;;;18.01;75.90
61478;BME280;47345;52.334;10.392;2023-05-10T12:28:06;100383.84;;;18.09;75.35
61478;BME280;47345;52.334;10.392;2023-05-10T12:30:37;100386.44;;;18.16;74.49
61478;BME280;47345;52.334;10.392;2023-05-10T12:33:12;100382.06;;;18.24;74.76
61478;BME280;47345;52.334;10.392;2023-05-10T12:35:49;100383.89;;;18.34;74.58
61478;BME280;47345;52.334;10.392;2023-05-10T12:38:34;100385.98;;;18.42;73.78
61478;BME280;47345;52.334;10.392;2023-05-10T12:41:08;100385.24;;;18.49;73.10
61478;BME280;47345;52.334;10.392;2023-05-10T12:43:39;100388.66;;;18.56;72.66
61478;BME280;47345;52.334;10.392;2023-05-10T12:46:15;100387.06;;;18.62;72.17
61478;BME280;47345;52.334;10.392;2023-05-10T12:48:47;100389.97;;;18.67;71.87
61478;BME280;47345;52.334;10.392;2023-05-10T12:51:37;100395.30;;;18.71;71.63
61478;BME280;47345;52.334;10.392;2023-05-10T12:54:07;100394.96;;;18.78;70.58
61478;BME280;47345;52.334;10.392;2023-05-10T12:56:41;100397.52;;;18.83;70.34
61478;BME280;47345;52.334;10.392;2023-05-10T12:59:12;100399.88;;;18.88;70.78
61478;BME280;47345;52.334;10.392;2023-05-10T13:01:42;100403.77;;;18.94;70.11
61478;BME280;47345;52.334;10.392;2023-05-10T13:04:13;100401.27;;;19.00;69.66
61478;BME280;47345;52.334;10.392;2023-05-10T13:06:44;100398.67;;;19.06;69.23
61478;BME280;47345;52.334;10.392;2023-05-10T13:09:14;100403.89;;;19.12;69.05
61478;BME280;47345;52.334;10.392;2023-05-10T13:11:45;100405.25;;;19.19;68.73
61478;BME280;47345;52.334;10.392;2023-05-10T13:14:17;100405.60;;;19.22;67.79